sensor_id;sensor_type;location;lat;lon;timestamp;temperature;humidity
84739;DHT22;74969;44.836;-0.586;2024-01-16T00:01:37;7.00;85.70
84739;DHT22;74969;44.836;-0.586;2024-01-16T00:04:06;6.90;86.30
84739;DHT22;74969;44.836;-0.586;2024-01-16T00:06:33;7.00;86.00
84739;DHT22;74969;44.836;-0.586;2024-01-16T00:08:58;7.00;85.90
84739;DHT22;74969;44.836;-0.586;2024-01-16T00:11:24;7.00;85.60
84739;DHT22;74969;44.836;-0.586;2024-01-16T00:13:50;6.90;86.00
84739;DHT22;74969;44.836;-0.586;2024-01-16T00:16:15;6.90;86.20
84739;DHT22;74969;44.836;-0.586;2024-01-16T00:18:41;6.80;86.30
84739;DHT22;74969;44.836;-0.586;2024-01-16T00:21:07;6.90;86.50
84739;DHT22;74969;44.836;-0.586;2024-01-16T00:23:32;6.80;86.80
84739;DHT22;74969;44.836;-0.586;2024-01-16T00:25:58;6.80;87.10
84739;DHT22;74969;44.836;-0.586;2024-01-16T00:28:24;6.70;87.30
84739;DHT22;74969;44.836;-0.586;2024-01-16T00:30:49;6.80;86.80
84739;DHT22;74969;44.836;-0.586;2024-01-16T00:33:15;6.80;86.40
84739;DHT22;74969;44.836;-0.586;2024-01-16T00:35:41;6.80;86.60
84739;DHT22;74969;44.836;-0.586;2024-01-16T00:38:07;6.80;86.80
84739;DHT22;74969;44.836;-0.586;2024-01-16T00:40:32;6.90;86.90
84739;DHT22;74969;44.836;-0.586;2024-01-16T00:42:58;6.80;86.80
84739;DHT22;74969;44.836;-0.586;2024-01-16T00:45:23;6.80;87.10
84739;DHT22;74969;44.836;-0.586;2024-01-16T00:47:49;6.90;86.50
84739;DHT22;74969;44.836;-0.586;2024-01-16T00:50:15;6.90;86.40
84739;DHT22;74969;44.836;-0.586;2024-01-16T00:52:40;6.90;86.50
84739;DHT22;74969;44.836;-0.586;2024-01-16T00:55:06;6.90;86.50
84739;DHT22;74969;44.836;-0.586;2024-01-16T00:57:32;6.90;86.40
84739;DHT22;74969;44.836;-0.586;2024-01-16T00:59:57;6.90;86.60
84739;DHT22;74969;44.836;-0.586;2024-01-16T01:02:23;6.80;86.80
84739;DHT22;74969;44.836;-0.586;2024-01-16T01:04:49;6.80;87.20
84739;DHT22;74969;44.836;-0.586;2024-01-16T01:07:14;6.80;86.80
84739;DHT22;74969;44.836;-0.586;2024-01-16T01:09:41;6.90;86.50
84739;DHT22;74969;44.836;-0.586;2024-01-16T01:12:06;6.70;86.60
84739;DHT22;74969;44.836;-0.586;2024-01-16T01:14:33;6.60;87.30
84739;DHT22;74969;44.836;-0.586;2024-01-16T01:16:59;6.50;87.80
84739;DHT22;74969;44.836;-0.586;2024-01-16T01:19:24;6.40;87.80
84739;DHT22;74969;44.836;-0.586;2024-01-16T01:21:50;6.50;87.50
84739;DHT22;74969;44.836;-0.586;2024-01-16T01:24:16;6.60;87.10
84739;DHT22;74969;44.836;-0.586;2024-01-16T01:26:45;6.60;87.40
84739;DHT22;74969;44.836;-0.586;2024-01-16T01:29:10;6.60;87.60
84739;DHT22;74969;44.836;-0.586;2024-01-16T01:31:36;6.60;87.50
84739;DHT22;74969;44.836;-0.586;2024-01-16T01:34:02;6.60;87.50
84739;DHT22;74969;44.836;-0.586;2024-01-16T01:36:29;6.60;87.70
84739;DHT22;74969;44.836;-0.586;2024-01-16T01:38:55;6.70;87.20
84739;DHT22;74969;44.836;-0.586;2024-01-16T01:41:21;6.70;87.10
84739;DHT22;74969;44.836;-0.586;2024-01-16T01:43:46;6.70;87.20
84739;DHT22;74969;44.836;-0.586;2024-01-16T01:46:19;6.80;87.30
84739;DHT22;74969;44.836;-0.586;2024-01-16T01:48:47;6.80;87.30
84739;DHT22;74969;44.836;-0.586;2024-01-16T01:51:14;6.80;87.00
84739;DHT22;74969;44.836;-0.586;2024-01-16T01:53:44;6.80;86.90
84739;DHT22;74969;44.836;-0.586;2024-01-16T01:56:18;6.90;87.00
84739;DHT22;74969;44.836;-0.586;2024-01-16T01:58:46;6.90;86.80
84739;DHT22;74969;44.836;-0.586;2024-01-16T02:01:13;6.90;86.90
84739;DHT22;74969;44.836;-0.586;2024-01-16T02:03:44;6.80;86.90
84739;DHT22;74969;44.836;-0.586;2024-01-16T02:06:11;6.80;86.90
84739;DHT22;74969;44.836;-0.586;2024-01-16T02:08:39;6.90;87.10
84739;DHT22;74969;44.836;-0.586;2024-01-16T02:11:05;6.90;87.10
84739;DHT22;74969;44.836;-0.586;2024-01-16T02:13:31;7.00;87.00
84739;DHT22;74969;44.836;-0.586;2024-01-16T02:15:57;7.00;86.90
84739;DHT22;74969;44.836;-0.586;2024-01-16T02:18:22;7.00;87.00
84739;DHT22;74969;44.836;-0.586;2024-01-16T02:20:48;7.10;86.90
84739;DHT22;74969;44.836;-0.586;2024-01-16T02:23:14;7.10;86.60
84739;DHT22;74969;44.836;-0.586;2024-01-16T02:25:44;7.10;86.60
84739;DHT22;74969;44.836;-0.586;2024-01-16T02:28:10;7.10;86.60
84739;DHT22;74969;44.836;-0.586;2024-01-16T02:30:36;7.10;86.50
84739;DHT22;74969;44.836;-0.586;2024-01-16T02:33:01;7.10;86.70
84739;DHT22;74969;44.836;-0.586;2024-01-16T02:35:29;7.10;86.70
84739;DHT22;74969;44.836;-0.586;2024-01-16T02:37:54;7.20;86.60
84739;DHT22;74969;44.836;-0.586;2024-01-16T02:40:20;7.20;86.60
84739;DHT22;74969;44.836;-0.586;2024-01-16T02:42:46;7.30;86.00
84739;DHT22;74969;44.836;-0.586;2024-01-16T02:45:12;7.30;85.60
84739;DHT22;74969;44.836;-0.586;2024-01-16T02:47:38;7.30;85.40
84739;DHT22;74969;44.836;-0.586;2024-01-16T02:50:04;7.30;85.90
84739;DHT22;74969;44.836;-0.586;2024-01-16T02:52:30;7.30;86.30
84739;DHT22;74969;44.836;-0.586;2024-01-16T02:54:56;7.30;85.90
84739;DHT22;74969;44.836;-0.586;2024-01-16T02:57:21;7.30;86.00
84739;DHT22;74969;44.836;-0.586;2024-01-16T02:59:47;7.20;86.10
84739;DHT22;74969;44.836;-0.586;2024-01-16T03:02:13;7.30;86.30
84739;DHT22;74969;44.836;-0.586;2024-01-16T03:04:39;7.30;86.30
84739;DHT22;74969;44.836;-0.586;2024-01-16T03:07:05;7.30;86.00
84739;DHT22;74969;44.836;-0.586;2024-01-16T03:09:31;7.20;85.90
84739;DHT22;74969;44.836;-0.586;2024-01-16T03:11:56;7.20;86.10
84739;DHT22;74969;44.836;-0.586;2024-01-16T03:14:23;7.20;86.10
84739;DHT22;74969;44.836;-0.586;2024-01-16T03:16:49;7.10;85.90
84739;DHT22;74969;44.836;-0.586;2024-01-16T03:19:15;7.00;86.30
84739;DHT22;74969;44.836;-0.586;2024-01-16T03:21:41;7.10;86.40
84739;DHT22;74969;44.836;-0.586;2024-01-16T03:24:06;7.20;86.00
84739;DHT22;74969;44.836;-0.586;2024-01-16T03:26:32;7.10;85.70
84739;DHT22;74969;44.836;-0.586;2024-01-16T03:28:58;7.10;86.10
84739;DHT22;74969;44.836;-0.586;2024-01-16T03:31:24;7.10;86.20
84739;DHT22;74969;44.836;-0.586;2024-01-16T03:33:50;7.20;85.70
84739;DHT22;74969;44.836;-0.586;2024-01-16T03:36:16;7.30;85.20
84739;DHT22;74969;44.836;-0.586;2024-01-16T03:38:45;7.30;85.10
84739;DHT22;74969;44.836;-0.586;2024-01-16T03:41:13;7.30;85.30
84739;DHT22;74969;44.836;-0.586;2024-01-16T03:43:40;7.20;85.70
84739;DHT22;74969;44.836;-0.586;2024-01-16T03:46:05;7.20;85.90
84739;DHT22;74969;44.836;-0.586;2024-01-16T03:48:32;7.10;86.00
84739;DHT22;74969;44.836;-0.586;2024-01-16T03:50:57;7.00;86.10
84739;DHT22;74969;44.836;-0.586;2024-01-16T03:53:23;6.90;86.30
84739;DHT22;74969;44.836;-0.586;2024-01-16T03:55:49;6.90;86.60
84739;DHT22;74969;44.836;-0.586;2024-01-16T03:58:15;6.90;86.90
84739;DHT22;74969;44.836;-0.586;2024-01-16T04:00:41;6.90;86.90
84739;DHT22;74969;44.836;-0.586;2024-01-16T04:03:07;7.00;87.00
84739;DHT22;74969;44.836;-0.586;2024-01-16T04:05:33;7.10;87.00
84739;DHT22;74969;44.836;-0.586;2024-01-16T04:07:59;7.20;86.50
84739;DHT22;74969;44.836;-0.586;2024-01-16T04:10:25;7.20;86.50
84739;DHT22;74969;44.836;-0.586;2024-01-16T04:12:50;7.20;86.40
84739;DHT22;74969;44.836;-0.586;2024-01-16T04:15:16;7.30;86.50
84739;DHT22;74969;44.836;-0.586;2024-01-16T04:17:42;7.30;86.30
84739;DHT22;74969;44.836;-0.586;2024-01-16T04:20:08;7.30;86.20
84739;DHT22;74969;44.836;-0.586;2024-01-16T04:22:35;7.30;86.20
84739;DHT22;74969;44.836;-0.586;2024-01-16T04:25:00;7.30;86.30
84739;DHT22;74969;44.836;-0.586;2024-01-16T04:27:26;7.30;86.20
84739;DHT22;74969;44.836;-0.586;2024-01-16T04:29:52;7.40;86.40
84739;DHT22;74969;44.836;-0.586;2024-01-16T04:32:18;7.40;86.10
84739;DHT22;74969;44.836;-0.586;2024-01-16T04:34:44;7.40;86.10
84739;DHT22;74969;44.836;-0.586;2024-01-16T04:37:10;7.40;86.30
84739;DHT22;74969;44.836;-0.586;2024-01-16T04:39:36;7.40;86.20
84739;DHT22;74969;44.836;-0.586;2024-01-16T04:42:02;7.40;86.30
84739;DHT22;74969;44.836;-0.586;2024-01-16T04:44:28;7.40;86.30
84739;DHT22;74969;44.836;-0.586;2024-01-16T04:46:53;7.40;86.30
84739;DHT22;74969;44.836;-0.586;2024-01-16T04:49:19;7.40;86.10
84739;DHT22;74969;44.836;-0.586;2024-01-16T04:51:45;7.40;85.90
84739;DHT22;74969;44.836;-0.586;2024-01-16T04:54:11;7.40;85.90
84739;DHT22;74969;44.836;-0.586;2024-01-16T04:56:37;7.30;85.80
84739;DHT22;74969;44.836;-0.586;2024-01-16T04:59:03;7.30;86.30
84739;DHT22;74969;44.836;-0.586;2024-01-16T05:01:29;7.30;86.20
84739;DHT22;74969;44.836;-0.586;2024-01-16T05:03:54;7.30;86.20
84739;DHT22;74969;44.836;-0.586;2024-01-16T05:06:20;7.30;86.30
84739;DHT22;74969;44.836;-0.586;2024-01-16T05:08:46;7.40;86.20
84739;DHT22;74969;44.836;-0.586;2024-01-16T05:11:12;7.40;86.10
84739;DHT22;74969;44.836;-0.586;2024-01-16T05:13:38;7.40;86.30
84739;DHT22;74969;44.836;-0.586;2024-01-16T05:16:04;7.30;86.10
84739;DHT22;74969;44.836;-0.586;2024-01-16T05:18:30;7.20;86.30
84739;DHT22;74969;44.836;-0.586;2024-01-16T05:20:56;7.20;86.70
84739;DHT22;74969;44.836;-0.586;2024-01-16T05:23:22;7.20;86.90
84739;DHT22;74969;44.836;-0.586;2024-01-16T05:25:47;7.30;87.00
84739;DHT22;74969;44.836;-0.586;2024-01-16T05:28:13;7.30;87.00
84739;DHT22;74969;44.836;-0.586;2024-01-16T05:30:38;7.40;86.90
84739;DHT22;74969;44.836;-0.586;2024-01-16T05:33:04;7.40;86.90
84739;DHT22;74969;44.836;-0.586;2024-01-16T05:35:30;7.50;86.70
84739;DHT22;74969;44.836;-0.586;2024-01-16T05:37:56;7.60;86.40
84739;DHT22;74969;44.836;-0.586;2024-01-16T05:40:22;7.60;86.20
84739;DHT22;74969;44.836;-0.586;2024-01-16T05:42:49;7.60;86.00
84739;DHT22;74969;44.836;-0.586;2024-01-16T05:45:15;7.60;86.30
84739;DHT22;74969;44.836;-0.586;2024-01-16T05:47:41;7.60;86.20
84739;DHT22;74969;44.836;-0.586;2024-01-16T05:50:07;7.60;86.00
84739;DHT22;74969;44.836;-0.586;2024-01-16T05:52:33;7.60;86.30
84739;DHT22;74969;44.836;-0.586;2024-01-16T05:54:58;7.60;86.20
84739;DHT22;74969;44.836;-0.586;2024-01-16T05:57:25;7.60;86.20
84739;DHT22;74969;44.836;-0.586;2024-01-16T05:59:51;7.60;86.20
84739;DHT22;74969;44.836;-0.586;2024-01-16T06:02:17;7.60;86.10
84739;DHT22;74969;44.836;-0.586;2024-01-16T06:04:43;7.60;86.50
84739;DHT22;74969;44.836;-0.586;2024-01-16T06:07:08;7.70;86.40
84739;DHT22;74969;44.836;-0.586;2024-01-16T06:09:41;7.70;86.10
84739;DHT22;74969;44.836;-0.586;2024-01-16T06:12:07;7.70;86.30
84739;DHT22;74969;44.836;-0.586;2024-01-16T06:14:33;7.70;86.00
84739;DHT22;74969;44.836;-0.586;2024-01-16T06:16:59;7.80;85.80
84739;DHT22;74969;44.836;-0.586;2024-01-16T06:19:25;7.80;85.90
84739;DHT22;74969;44.836;-0.586;2024-01-16T06:21:51;7.80;86.10
84739;DHT22;74969;44.836;-0.586;2024-01-16T06:24:16;7.80;86.30
84739;DHT22;74969;44.836;-0.586;2024-01-16T06:26:42;7.90;86.10
84739;DHT22;74969;44.836;-0.586;2024-01-16T06:29:08;8.00;85.70
84739;DHT22;74969;44.836;-0.586;2024-01-16T06:31:34;8.00;85.60
84739;DHT22;74969;44.836;-0.586;2024-01-16T06:34:00;8.00;85.50
84739;DHT22;74969;44.836;-0.586;2024-01-16T06:36:26;7.90;85.30
84739;DHT22;74969;44.836;-0.586;2024-01-16T06:38:52;7.90;85.40
84739;DHT22;74969;44.836;-0.586;2024-01-16T06:41:17;7.70;84.80
84739;DHT22;74969;44.836;-0.586;2024-01-16T06:43:43;7.60;85.60
84739;DHT22;74969;44.836;-0.586;2024-01-16T06:46:09;7.60;86.00
84739;DHT22;74969;44.836;-0.586;2024-01-16T06:48:36;7.70;86.00
84739;DHT22;74969;44.836;-0.586;2024-01-16T06:51:05;7.60;86.10
84739;DHT22;74969;44.836;-0.586;2024-01-16T06:53:31;7.70;86.00
84739;DHT22;74969;44.836;-0.586;2024-01-16T06:55:56;7.70;85.90
84739;DHT22;74969;44.836;-0.586;2024-01-16T06:58:22;7.70;85.80
84739;DHT22;74969;44.836;-0.586;2024-01-16T07:00:48;7.70;85.70
84739;DHT22;74969;44.836;-0.586;2024-01-16T07:03:14;7.70;85.60
84739;DHT22;74969;44.836;-0.586;2024-01-16T07:05:40;7.70;85.40
84739;DHT22;74969;44.836;-0.586;2024-01-16T07:08:06;7.60;85.40
84739;DHT22;74969;44.836;-0.586;2024-01-16T07:10:33;7.60;85.10
84739;DHT22;74969;44.836;-0.586;2024-01-16T07:12:59;7.60;85.10
84739;DHT22;74969;44.836;-0.586;2024-01-16T07:15:25;7.50;85.30
84739;DHT22;74969;44.836;-0.586;2024-01-16T07:17:51;7.40;85.10
84739;DHT22;74969;44.836;-0.586;2024-01-16T07:20:17;7.20;85.50
84739;DHT22;74969;44.836;-0.586;2024-01-16T07:22:42;7.20;85.90
84739;DHT22;74969;44.836;-0.586;2024-01-16T07:25:09;7.20;85.80
84739;DHT22;74969;44.836;-0.586;2024-01-16T07:27:35;7.20;85.70
84739;DHT22;74969;44.836;-0.586;2024-01-16T07:30:01;7.10;85.90
84739;DHT22;74969;44.836;-0.586;2024-01-16T07:32:27;7.10;86.30
84739;DHT22;74969;44.836;-0.586;2024-01-16T07:34:52;7.10;86.40
84739;DHT22;74969;44.836;-0.586;2024-01-16T07:37:19;7.20;86.20
84739;DHT22;74969;44.836;-0.586;2024-01-16T07:39:44;7.20;85.70
84739;DHT22;74969;44.836;-0.586;2024-01-16T07:42:10;7.30;85.10
84739;DHT22;74969;44.836;-0.586;2024-01-16T07:44:36;7.30;84.80
84739;DHT22;74969;44.836;-0.586;2024-01-16T07:47:02;7.20;85.00
84739;DHT22;74969;44.836;-0.586;2024-01-16T07:49:28;7.20;85.20
84739;DHT22;74969;44.836;-0.586;2024-01-16T07:51:54;7.00;85.90
84739;DHT22;74969;44.836;-0.586;2024-01-16T07:54:20;7.00;86.30
84739;DHT22;74969;44.836;-0.586;2024-01-16T07:56:46;7.00;86.30
84739;DHT22;74969;44.836;-0.586;2024-01-16T07:59:12;6.90;86.60
84739;DHT22;74969;44.836;-0.586;2024-01-16T08:01:37;7.00;86.80
84739;DHT22;74969;44.836;-0.586;2024-01-16T08:04:03;7.10;86.90
84739;DHT22;74969;44.836;-0.586;2024-01-16T08:06:29;7.10;86.60
84739;DHT22;74969;44.836;-0.586;2024-01-16T08:08:55;7.20;86.60
84739;DHT22;74969;44.836;-0.586;2024-01-16T08:11:21;7.30;86.70
84739;DHT22;74969;44.836;-0.586;2024-01-16T08:13:47;7.30;86.50
84739;DHT22;74969;44.836;-0.586;2024-01-16T08:16:13;7.40;86.50
84739;DHT22;74969;44.836;-0.586;2024-01-16T08:18:38;7.40;86.20
84739;DHT22;74969;44.836;-0.586;2024-01-16T08:21:04;7.40;86.50
84739;DHT22;74969;44.836;-0.586;2024-01-16T08:23:30;7.40;86.60
84739;DHT22;74969;44.836;-0.586;2024-01-16T08:25:55;7.50;86.50
84739;DHT22;74969;44.836;-0.586;2024-01-16T08:28:21;7.60;86.10
84739;DHT22;74969;44.836;-0.586;2024-01-16T08:30:49;7.60;86.00
84739;DHT22;74969;44.836;-0.586;2024-01-16T08:33:15;7.60;86.00
84739;DHT22;74969;44.836;-0.586;2024-01-16T08:35:41;7.60;85.90
84739;DHT22;74969;44.836;-0.586;2024-01-16T08:38:06;7.70;86.00
84739;DHT22;74969;44.836;-0.586;2024-01-16T08:40:32;7.60;85.70
84739;DHT22;74969;44.836;-0.586;2024-01-16T08:42:57;7.70;85.70
84739;DHT22;74969;44.836;-0.586;2024-01-16T08:45:23;7.80;85.80
84739;DHT22;74969;44.836;-0.586;2024-01-16T08:47:51;7.80;85.50
84739;DHT22;74969;44.836;-0.586;2024-01-16T08:50:17;7.70;85.30
84739;DHT22;74969;44.836;-0.586;2024-01-16T08:52:43;7.70;85.80
84739;DHT22;74969;44.836;-0.586;2024-01-16T08:55:08;7.70;85.30
84739;DHT22;74969;44.836;-0.586;2024-01-16T08:57:36;7.70;85.80
84739;DHT22;74969;44.836;-0.586;2024-01-16T09:00:04;7.70;85.90
84739;DHT22;74969;44.836;-0.586;2024-01-16T09:02:29;7.80;86.00
84739;DHT22;74969;44.836;-0.586;2024-01-16T09:04:56;7.90;85.60
84739;DHT22;74969;44.836;-0.586;2024-01-16T09:07:22;8.00;85.50
84739;DHT22;74969;44.836;-0.586;2024-01-16T09:09:48;8.10;85.20
84739;DHT22;74969;44.836;-0.586;2024-01-16T09:12:15;8.00;84.90
84739;DHT22;74969;44.836;-0.586;2024-01-16T09:14:40;8.00;85.60
84739;DHT22;74969;44.836;-0.586;2024-01-16T09:17:06;8.10;85.70
84739;DHT22;74969;44.836;-0.586;2024-01-16T09:19:32;8.10;85.40
84739;DHT22;74969;44.836;-0.586;2024-01-16T09:21:58;8.10;85.40
84739;DHT22;74969;44.836;-0.586;2024-01-16T09:24:23;8.20;85.40
84739;DHT22;74969;44.836;-0.586;2024-01-16T09:26:49;8.30;85.60
84739;DHT22;74969;44.836;-0.586;2024-01-16T09:29:15;8.30;85.20
84739;DHT22;74969;44.836;-0.586;2024-01-16T09:31:41;8.30;85.10
84739;DHT22;74969;44.836;-0.586;2024-01-16T09:34:07;8.30;85.00
84739;DHT22;74969;44.836;-0.586;2024-01-16T09:36:33;8.30;85.40
84739;DHT22;74969;44.836;-0.586;2024-01-16T09:39:01;8.30;85.50
84739;DHT22;74969;44.836;-0.586;2024-01-16T09:41:27;8.30;85.40
84739;DHT22;74969;44.836;-0.586;2024-01-16T09:43:54;8.40;85.70
84739;DHT22;74969;44.836;-0.586;2024-01-16T09:46:22;8.50;85.40
84739;DHT22;74969;44.836;-0.586;2024-01-16T09:48:51;8.50;85.00
84739;DHT22;74969;44.836;-0.586;2024-01-16T09:51:19;8.60;85.00
84739;DHT22;74969;44.836;-0.586;2024-01-16T09:53:45;8.70;85.20
84739;DHT22;74969;44.836;-0.586;2024-01-16T09:56:15;8.80;85.10
84739;DHT22;74969;44.836;-0.586;2024-01-16T09:58:43;8.80;84.70
84739;DHT22;74969;44.836;-0.586;2024-01-16T10:01:10;8.90;85.10
84739;DHT22;74969;44.836;-0.586;2024-01-16T10:03:36;9.10;84.60
84739;DHT22;74969;44.836;-0.586;2024-01-16T10:06:05;9.20;84.30
84739;DHT22;74969;44.836;-0.586;2024-01-16T10:08:32;9.20;84.00
84739;DHT22;74969;44.836;-0.586;2024-01-16T10:10:58;9.20;84.20
84739;DHT22;74969;44.836;-0.586;2024-01-16T10:13:25;9.30;84.00
84739;DHT22;74969;44.836;-0.586;2024-01-16T10:15:52;9.30;83.80
84739;DHT22;74969;44.836;-0.586;2024-01-16T10:18:24;9.20;83.90
84739;DHT22;74969;44.836;-0.586;2024-01-16T10:20:50;9.20;84.10
84739;DHT22;74969;44.836;-0.586;2024-01-16T10:23:25;9.20;84.50
84739;DHT22;74969;44.836;-0.586;2024-01-16T10:26:14;9.20;84.40
84739;DHT22;74969;44.836;-0.586;2024-01-16T10:28:41;9.30;84.60
84739;DHT22;74969;44.836;-0.586;2024-01-16T10:31:09;9.40;84.70
84739;DHT22;74969;44.836;-0.586;2024-01-16T10:33:34;9.40;84.60
84739;DHT22;74969;44.836;-0.586;2024-01-16T10:38:38;9.60;84.20
84739;DHT22;74969;44.836;-0.586;2024-01-16T10:41:17;9.60;84.30
84739;DHT22;74969;44.836;-0.586;2024-01-16T10:43:43;9.70;84.70
84739;DHT22;74969;44.836;-0.586;2024-01-16T10:46:17;9.90;84.10
84739;DHT22;74969;44.836;-0.586;2024-01-16T10:48:44;9.90;83.60
84739;DHT22;74969;44.836;-0.586;2024-01-16T10:51:14;9.80;83.90
84739;DHT22;74969;44.836;-0.586;2024-01-16T10:53:44;9.90;84.30
84739;DHT22;74969;44.836;-0.586;2024-01-16T10:56:12;10.10;84.10
84739;DHT22;74969;44.836;-0.586;2024-01-16T10:58:41;10.20;83.60
84739;DHT22;74969;44.836;-0.586;2024-01-16T11:01:15;10.40;83.40
84739;DHT22;74969;44.836;-0.586;2024-01-16T11:03:47;10.50;83.30
84739;DHT22;74969;44.836;-0.586;2024-01-16T11:06:18;10.60;83.10
84739;DHT22;74969;44.836;-0.586;2024-01-16T11:08:47;10.70;82.60
84739;DHT22;74969;44.836;-0.586;2024-01-16T11:11:14;10.80;82.20
84739;DHT22;74969;44.836;-0.586;2024-01-16T11:13:41;10.70;82.00
84739;DHT22;74969;44.836;-0.586;2024-01-16T11:16:10;10.70;82.50
84739;DHT22;74969;44.836;-0.586;2024-01-16T11:18:36;10.70;82.70
84739;DHT22;74969;44.836;-0.586;2024-01-16T11:21:12;10.90;83.30
84739;DHT22;74969;44.836;-0.586;2024-01-16T11:23:39;11.10;82.50
84739;DHT22;74969;44.836;-0.586;2024-01-16T11:26:33;11.20;82.00
84739;DHT22;74969;44.836;-0.586;2024-01-16T11:31:56;11.20;81.70
84739;DHT22;74969;44.836;-0.586;2024-01-16T11:37:15;11.30;81.90
84739;DHT22;74969;44.836;-0.586;2024-01-16T11:39:50;11.20;81.80
84739;DHT22;74969;44.836;-0.586;2024-01-16T11:42:26;11.20;82.60
84739;DHT22;74969;44.836;-0.586;2024-01-16T11:44:52;11.30;82.30
84739;DHT22;74969;44.836;-0.586;2024-01-16T11:47:22;11.40;82.50
84739;DHT22;74969;44.836;-0.586;2024-01-16T11:50:08;11.60;82.20
84739;DHT22;74969;44.836;-0.586;2024-01-16T11:52:42;11.60;82.00
84739;DHT22;74969;44.836;-0.586;2024-01-16T11:55:28;11.80;82.10
84739;DHT22;74969;44.836;-0.586;2024-01-16T12:00:35;11.90;82.20
84739;DHT22;74969;44.836;-0.586;2024-01-16T12:03:03;11.90;82.90
84739;DHT22;74969;44.836;-0.586;2024-01-16T12:05:29;12.00;83.10
84739;DHT22;74969;44.836;-0.586;2024-01-16T12:07:55;12.20;82.40
84739;DHT22;74969;44.836;-0.586;2024-01-16T12:10:22;12.40;81.80
84739;DHT22;74969;44.836;-0.586;2024-01-16T12:12:50;12.30;81.60
84739;DHT22;74969;44.836;-0.586;2024-01-16T12:15:18;12.20;81.80
84739;DHT22;74969;44.836;-0.586;2024-01-16T12:17:59;12.30;82.20
84739;DHT22;74969;44.836;-0.586;2024-01-16T12:20:32;12.50;81.30
84739;DHT22;74969;44.836;-0.586;2024-01-16T12:23:06;12.30;81.40
84739;DHT22;74969;44.836;-0.586;2024-01-16T12:25:37;12.30;81.70
84739;DHT22;74969;44.836;-0.586;2024-01-16T12:28:06;12.30;82.10
84739;DHT22;74969;44.836;-0.586;2024-01-16T12:30:33;12.40;81.20
84739;DHT22;74969;44.836;-0.586;2024-01-16T12:33:12;12.30;81.90
84739;DHT22;74969;44.836;-0.586;2024-01-16T12:38:05;12.40;81.50
84739;DHT22;74969;44.836;-0.586;2024-01-16T12:41:42;13.20;79.20
84739;DHT22;74969;44.836;-0.586;2024-01-16T12:44:09;12.70;79.90
84739;DHT22;74969;44.836;-0.586;2024-01-16T12:46:35;12.40;81.30
84739;DHT22;74969;44.836;-0.586;2024-01-16T12:49:03;12.40;82.10
84739;DHT22;74969;44.836;-0.586;2024-01-16T12:51:31;12.40;81.80
84739;DHT22;74969;44.836;-0.586;2024-01-16T12:54:17;12.30;82.30
84739;DHT22;74969;44.836;-0.586;2024-01-16T12:56:44;12.40;82.60
84739;DHT22;74969;44.836;-0.586;2024-01-16T12:59:11;12.40;82.10
84739;DHT22;74969;44.836;-0.586;2024-01-16T13:01:40;12.50;81.60
84739;DHT22;74969;44.836;-0.586;2024-01-16T13:04:07;12.40;81.70
84739;DHT22;74969;44.836;-0.586;2024-01-16T13:06:33;12.40;82.00
84739;DHT22;74969;44.836;-0.586;2024-01-16T13:09:10;12.40;82.30
84739;DHT22;74969;44.836;-0.586;2024-01-16T13:11:54;12.30;83.00
84739;DHT22;74969;44.836;-0.586;2024-01-16T13:14:24;12.30;83.40
84739;DHT22;74969;44.836;-0.586;2024-01-16T13:16:52;12.50;82.90
84739;DHT22;74969;44.836;-0.586;2024-01-16T13:19:21;12.50;82.70
84739;DHT22;74969;44.836;-0.586;2024-01-16T13:21:48;12.40;83.40
84739;DHT22;74969;44.836;-0.586;2024-01-16T13:24:13;12.40;83.10
84739;DHT22;74969;44.836;-0.586;2024-01-16T13:26:39;12.50;82.60
84739;DHT22;74969;44.836;-0.586;2024-01-16T13:31:00;13.00;82.40
84739;DHT22;74969;44.836;-0.586;2024-01-16T13:33:26;12.60;82.40
84739;DHT22;74969;44.836;-0.586;2024-01-16T13:35:55;12.60;82.70
84739;DHT22;74969;44.836;-0.586;2024-01-16T13:38:21;12.60;82.60
84739;DHT22;74969;44.836;-0.586;2024-01-16T13:40:47;12.60;82.70
84739;DHT22;74969;44.836;-0.586;2024-01-16T13:43:13;12.70;82.40
84739;DHT22;74969;44.836;-0.586;2024-01-16T13:45:39;12.60;82.20
84739;DHT22;74969;44.836;-0.586;2024-01-16T13:48:06;12.50;83.00
84739;DHT22;74969;44.836;-0.586;2024-01-16T13:50:33;12.50;83.30
84739;DHT22;74969;44.836;-0.586;2024-01-16T13:52:59;12.60;83.00
84739;DHT22;74969;44.836;-0.586;2024-01-16T13:55:25;12.70;82.60
84739;DHT22;74969;44.836;-0.586;2024-01-16T13:57:51;12.70;82.60
84739;DHT22;74969;44.836;-0.586;2024-01-16T14:00:17;12.60;83.10
84739;DHT22;74969;44.836;-0.586;2024-01-16T14:02:45;12.60;82.80
84739;DHT22;74969;44.836;-0.586;2024-01-16T14:05:12;12.60;83.00
84739;DHT22;74969;44.836;-0.586;2024-01-16T14:07:41;12.60;83.10
84739;DHT22;74969;44.836;-0.586;2024-01-16T14:10:10;12.70;82.90
84739;DHT22;74969;44.836;-0.586;2024-01-16T14:12:40;12.60;83.10
84739;DHT22;74969;44.836;-0.586;2024-01-16T14:15:14;12.60;83.30
84739;DHT22;74969;44.836;-0.586;2024-01-16T14:17:49;12.60;83.40
84739;DHT22;74969;44.836;-0.586;2024-01-16T14:20:16;12.70;83.30
84739;DHT22;74969;44.836;-0.586;2024-01-16T14:22:43;12.70;83.20
84739;DHT22;74969;44.836;-0.586;2024-01-16T14:25:10;12.80;83.60
84739;DHT22;74969;44.836;-0.586;2024-01-16T14:27:43;12.90;83.60
84739;DHT22;74969;44.836;-0.586;2024-01-16T14:30:14;12.90;83.00
84739;DHT22;74969;44.836;-0.586;2024-01-16T14:32:41;13.00;82.30
84739;DHT22;74969;44.836;-0.586;2024-01-16T14:35:07;13.00;82.00
84739;DHT22;74969;44.836;-0.586;2024-01-16T14:37:35;13.00;82.50
84739;DHT22;74969;44.836;-0.586;2024-01-16T14:40:02;13.10;82.20
84739;DHT22;74969;44.836;-0.586;2024-01-16T14:42:42;13.20;81.80
84739;DHT22;74969;44.836;-0.586;2024-01-16T14:45:13;13.20;82.10
84739;DHT22;74969;44.836;-0.586;2024-01-16T14:47:39;13.30;82.00
84739;DHT22;74969;44.836;-0.586;2024-01-16T14:50:08;13.40;81.50
84739;DHT22;74969;44.836;-0.586;2024-01-16T14:52:35;13.40;81.50
84739;DHT22;74969;44.836;-0.586;2024-01-16T14:55:01;13.30;81.70
84739;DHT22;74969;44.836;-0.586;2024-01-16T14:57:27;13.50;81.60
84739;DHT22;74969;44.836;-0.586;2024-01-16T14:59:56;13.60;80.80
84739;DHT22;74969;44.836;-0.586;2024-01-16T15:02:21;13.60;80.60
84739;DHT22;74969;44.836;-0.586;2024-01-16T15:04:47;13.60;80.50
84739;DHT22;74969;44.836;-0.586;2024-01-16T15:07:15;13.50;80.80
84739;DHT22;74969;44.836;-0.586;2024-01-16T15:09:40;13.40;81.30
84739;DHT22;74969;44.836;-0.586;2024-01-16T15:12:09;13.30;81.10
84739;DHT22;74969;44.836;-0.586;2024-01-16T15:16:27;13.80;80.40
84739;DHT22;74969;44.836;-0.586;2024-01-16T15:18:53;13.30;81.40
84739;DHT22;74969;44.836;-0.586;2024-01-16T15:21:19;13.20;81.80
84739;DHT22;74969;44.836;-0.586;2024-01-16T15:23:45;13.10;81.80
84739;DHT22;74969;44.836;-0.586;2024-01-16T15:26:10;13.10;82.10
84739;DHT22;74969;44.836;-0.586;2024-01-16T15:28:39;13.10;82.30
84739;DHT22;74969;44.836;-0.586;2024-01-16T15:31:05;13.00;82.50
84739;DHT22;74969;44.836;-0.586;2024-01-16T15:33:33;13.10;82.70
84739;DHT22;74969;44.836;-0.586;2024-01-16T15:36:01;13.20;82.50
84739;DHT22;74969;44.836;-0.586;2024-01-16T15:38:26;13.30;81.90
84739;DHT22;74969;44.836;-0.586;2024-01-16T15:40:52;13.40;81.70
84739;DHT22;74969;44.836;-0.586;2024-01-16T15:43:18;13.40;81.60
84739;DHT22;74969;44.836;-0.586;2024-01-16T15:45:44;13.40;81.50